Flight Track Log - Related Links

Times and Time Zones

All times are in EDT time to prevent confusion due to time zone crossing. See the CES5390 flight status page for this flight to view local times or setup timezone preferences in your user account.

Time Position Orientation Groundspeed Altitude Reporting Facility
EDT Latitude Longitude Course Direction KTS MPH feet Rate Location/Type
Sun 11:36:00 PM 33.4934 115.8140 113° Southeast  Level Estimated
Sun 11:37:00 PM 33.4471 115.9345 115° Southeast  Level Estimated
Sun 11:38:00 PM 33.4007 116.0548 115° Southeast  Level Estimated
Sun 11:39:00 PM 33.3541 116.1751 115° Southeast  Level Estimated
Sun 11:40:00 PM 33.3075 116.2952 115° Southeast  Level Estimated
Sun 11:41:00 PM 33.2607 116.4151 115° Southeast  Level Estimated
Sun 11:42:00 PM 33.2139 116.5350 115° Southeast  Level Estimated
Sun 11:43:00 PM 33.1669 116.6547 115° Southeast  Level Estimated
Sun 11:44:00 PM 33.1198 116.7742 115° Southeast  Level Estimated
Sun 11:45:00 PM 33.0726 116.8937 115° Southeast  Level Estimated
Sun 11:46:00 PM 33.0252 117.0130 115° Southeast  Level Estimated
Sun 11:47:00 PM 32.9778 117.1322 115° Southeast  Level Estimated
Sun 11:48:00 PM 32.9302 117.2513 115° Southeast  Level Estimated
Sun 11:49:00 PM 32.8825 117.3702 115° Southeast  Level Estimated
Sun 11:50:00 PM 32.8348 117.4890 116° Southeast  Level Estimated
Sun 11:51:00 PM 32.7869 117.6077 116° Southeast  Level Estimated
Sun 11:52:00 PM 32.7389 117.7262 116° Southeast  Level Estimated
Sun 11:53:00 PM 32.6907 117.8447 116° Southeast  Level Estimated
Sun 11:54:00 PM 32.6425 117.9630 116° Southeast  Level Estimated
Sun 11:55:00 PM 32.5942 118.0811 116° Southeast  Level Estimated
Sun 11:56:00 PM 32.5457 118.1992 116° Southeast  Level Estimated
Sun 11:57:00 PM 32.4972 118.3171 116° Southeast  Level Estimated
Sun 11:58:00 PM 32.4485 118.4349 116° Southeast  Level Estimated
Sun 11:59:00 PM 32.3997 118.5525 116° Southeast  Level Estimated
Mon 12:00:00 AM 32.3508 118.6701 116° Southeast  Level Estimated
Mon 12:01:00 AM 32.3018 118.7875 116° Southeast  Level Estimated
Mon 12:02:00 AM 32.2527 118.9047 116° Southeast  Level Estimated
Mon 12:03:00 AM 32.2035 119.0219 116° Southeast  Level Estimated
Mon 12:03:27 AM 31.6550 118.3710 116° Southeast 491 565 29,100  Level FlightAware ADS-B
Mon 12:04:00 AM 32.1542 119.1389 116° Southeast  Level Estimated
Mon 12:04:12 AM 31.6520 118.4920 92° East 491 565 29,100  Level FlightAware ADS-B
Mon 12:05:02 AM 31.6490 118.6180 92° East 491 565 29,100  Level FlightAware ADS-B
Mon 12:05:42 AM 31.6480 118.7080 91° East 491 565 29,100  Level FlightAware ADS-B
Mon 12:06:32 AM 31.6460 118.8220 91° East 491 565 29,100  Level FlightAware ADS-B
Mon 12:07:12 AM 31.6380 118.9710 94° East 498 573 29,100  Level FlightAware ADS-B
Mon 12:07:57 AM 31.6350 119.0820 92° East 498 573 29,100  Level FlightAware ADS-B
Mon 12:08:37 AM 31.6320 119.1740 92° East 498 573 29,100  Level FlightAware ADS-B
Mon 12:09:17 AM 31.6290 119.2660 92° East 498 573 29,100  Level FlightAware ADS-B
Mon 12:09:57 AM 31.6270 119.3580 91° East 498 573 29,100  Level FlightAware ADS-B
Mon 12:10:37 AM 31.6240 119.4490 92° East 498 573 29,100 -2,222 Level FlightAware ADS-B
Mon 12:13:00 AM 31.5584 119.7489 104° East  Level Estimated
Mon 12:14:00 AM 31.5307 119.8745 104° East  Level Estimated
Mon 12:15:00 AM 31.5028 120.0002 105° East  Level Estimated
Mon 12:16:00 AM 31.4748 120.1257 105° East  Level Estimated
Mon 12:16:07 AM 31.5880 120.3310 105° East 400 460 15,400  Level FlightAware ADS-B
Mon 12:16:47 AM 31.5650 120.4100 109° East 367 422 14,700 -1,050 Descending FlightAware ADS-B
Mon 12:17:27 AM 31.5430 120.4840 109° East 344 396 14,000 -1,341 Descending FlightAware ADS-B
Mon 12:18:12 AM 31.5200 120.5610 109° East 333 383 12,800 -1,765 Descending FlightAware ADS-B
Mon 12:18:52 AM 31.4990 120.6290 110° East 331 381 11,500 -1,650 Descending FlightAware ADS-B
Mon 12:19:32 AM 31.4790 120.6950 110° East 316 364 10,600 -1,200 Descending FlightAware ADS-B
Mon 12:20:17 AM 31.4570 120.7650 110° East 298 343 9,800 -1,200 Descending FlightAware ADS-B
Mon 12:20:42 AM 31.4460 120.8030 109° East 295 339 9,200 -1,527 Descending FlightAware ADS-B
Mon 12:21:12 AM 31.4320 120.8470 110° East 292 336 8,400 -1,636 Descending FlightAware ADS-B
Mon 12:21:37 AM 31.4200 120.8850 110° East 292 336 7,700 -1,418 Descending FlightAware ADS-B
Mon 12:22:07 AM 31.4080 120.9260 109° East 286 329 7,100 -560 Descending FlightAware ADS-B
Mon 12:22:52 AM 31.3880 120.9900 110° East 241 277 7,000 -86 Descending FlightAware ADS-B
Mon 12:23:17 AM 31.3790 121.0190 110° East 229 264 7,000  Level FlightAware ADS-B
Mon 12:23:47 AM 31.3680 121.0550 110° East 228 262 7,000 -109 Level FlightAware ADS-B
Mon 12:24:12 AM 31.3600 121.0840 108° East 226 260 6,900 -720 Descending FlightAware ADS-B
Mon 12:24:37 AM 31.3530 121.1140 105° East 231 266 6,400 -1,067 Descending FlightAware ADS-B
Mon 12:24:57 AM 31.3580 121.1370 76° East 230 265 6,100 -933 Descending FlightAware ADS-B
Mon 12:25:22 AM 31.3710 121.1660 62° Northeast 225 259 5,700 -462 Descending FlightAware ADS-B
Mon 12:26:02 AM 31.3860 121.2010 63° Northeast 221 254 5,600 -875 Descending FlightAware ADS-B
Mon 12:27:07 AM 31.4170 121.2690 62° Northeast 4,400 -1,020 Descending FlightAware ADS-B
Mon 12:29:00 AM 31.2154 121.3309 165° South  Level Estimated
Mon 12:29:07 AM 31.3400 121.3290 165° South 2,400  Level FlightAware ADS-B
Mon 12:29:22 AM 31.3260 121.3290 180° South 175 201 2,200 -738 Descending FlightAware ADS-B
Mon 12:30:12 AM 31.2890 121.3310 177° South 180 207 1,600 -720 Descending FlightAware ADS-B
Mon 12:31:02 AM 31.2570 121.3330 177° South 133 153 1,000 -738 Descending FlightAware ADS-B
Mon 12:31:17 AM 31.2470 121.3340 175° South 134 154 800 -600 Descending FlightAware ADS-B
Mon 12:31:42 AM 31.2330 121.3340 180° South 143 165 600 -369 Descending FlightAware ADS-B
Mon 12:32:22 AM 31.2100 121.3360 176° South 133 153 400 -300 Descending FlightAware ADS-B
Mon 12:35:00 AM 31.1979 121.3363 179° South  Level Estimated
Mon 12:36:00 AM 31.1979 121.3363 350° North  Level Estimated
Mon 12:37:00 AM 31.1979 121.3363 350° North  Level Estimated
Mon 12:38:00 AM 31.1979 121.3363 350° North  Level Estimated
Mon 12:39:00 AM 31.1979 121.3363 350° North  Level Estimated

Login

Don't have an account? Register now (free) for customized features, flight alerts, and more!